Time;durP1;ratioP1;P1;durP2;ratioP2;P2;SDS_P1;SDS_P2;PMS_P1;PMS_P2;Temp;Humidity;BMP_temperature;BMP_pressure;BME280_temperature;BME280_humidity;BME280_pressure;Samples;Min_cycle;Max_cycle;Signal;HPM_P1;HPM_P2
2023/06/05 00:00:42;;;;;;;3.45;1.88;;;;;;;25.64;49.76;99242.41;5094343;28;20038;-69
2023/06/05 00:03:07;;;;;;;3.15;1.83;;;;;;;25.63;49.50;99245.22;5094453;28;20403;-68
2023/06/05 00:05:32;;;;;;;3.08;2.00;;;;;;;25.62;49.80;99244.38;5093969;28;20051;-70
2023/06/05 00:07:58;;;;;;;3.10;2.10;;;;;;;25.60;49.67;99243.66;5094037;28;20020;-72
2023/06/05 00:10:24;;;;;;;3.53;1.85;;;;;;;25.59;49.76;99240.13;5093796;28;20028;-73
2023/06/05 00:12:49;;;;;;;4.20;2.20;;;;;;;25.58;49.76;99232.25;5094288;28;20099;-72
2023/06/05 00:15:15;;;;;;;3.88;2.00;;;;;;;25.56;49.67;99228.88;5094019;28;20051;-71
2023/06/05 00:17:41;;;;;;;3.75;1.83;;;;;;;25.59;50.00;99233.94;5093757;28;20028;-72
2023/06/05 00:20:09;;;;;;;3.10;2.00;;;;;;;25.62;50.12;99239.03;5094064;28;20024;-72
2023/06/05 00:22:35;;;;;;;3.63;1.90;;;;;;;25.63;50.06;99235.38;5094028;28;20081;-71
2023/06/05 00:25:00;;;;;;;3.55;2.08;;;;;;;25.65;50.05;99240.59;5093387;28;20021;-71
2023/06/05 00:27:25;;;;;;;3.88;2.20;;;;;;;25.64;49.94;99237.06;5109521;28;20085;-72
2023/06/05 00:29:51;;;;;;;3.42;1.90;;;;;;;25.65;50.25;99232.59;5093867;28;20442;-72
2023/06/05 00:32:16;;;;;;;3.05;1.90;;;;;;;25.66;50.31;99240.44;5093654;28;20036;-71
2023/06/05 00:34:42;;;;;;;3.85;2.50;;;;;;;25.71;50.68;99237.41;5093741;28;20028;-69
2023/06/05 00:37:08;;;;;;;3.90;2.40;;;;;;;25.70;50.64;99236.56;5093684;28;20055;-71
2023/06/05 00:39:33;;;;;;;3.65;2.50;;;;;;;25.73;50.80;99230.94;5093372;28;20027;-71
2023/06/05 00:41:59;;;;;;;3.95;2.58;;;;;;;25.76;50.61;99239.69;5093349;28;20012;-69
2023/06/05 00:44:24;;;;;;;4.07;2.47;;;;;;;25.79;50.42;99242.09;5093460;28;20507;-68
2023/06/05 00:46:52;;;;;;;3.58;2.28;;;;;;;25.81;50.43;99242.81;5091995;28;20388;-69
2023/06/05 00:49:19;;;;;;;3.25;2.42;;;;;;;25.80;50.26;99239.28;5093304;28;20031;-72
2023/06/05 00:51:45;;;;;;;4.40;2.67;;;;;;;25.79;50.65;99237.59;5093211;28;20061;-71
2023/06/05 00:54:13;;;;;;;5.72;2.63;;;;;;;25.79;50.82;99244.75;5092957;28;20024;-71
2023/06/05 00:56:40;;;;;;;3.33;2.33;;;;;;;25.79;50.38;99236.72;5093197;28;20050;-71
2023/06/05 00:59:07;;;;;;;4.07;2.67;;;;;;;25.78;50.80;99237.72;5093003;28;20024;-71
2023/06/05 01:01:34;;;;;;;4.13;2.63;;;;;;;25.76;50.76;99245.03;5093105;28;20106;-71
2023/06/05 01:04:00;;;;;;;3.88;2.92;;;;;;;25.76;50.46;99239.69;5093185;28;20024;-72
2023/06/05 01:06:28;;;;;;;4.65;2.80;;;;;;;25.78;50.81;99237.72;5093051;28;20028;-71
2023/06/05 01:08:56;;;;;;;4.25;2.50;;;;;;;25.73;50.92;99236.28;5092568;28;20016;-71
2023/06/05 01:11:25;;;;;;;4.47;3.00;;;;;;;25.73;50.96;99236.28;5092699;28;20035;-68
2023/06/05 01:14:02;;;;;;;4.50;2.60;;;;;;;25.73;51.00;99235.44;5093043;28;20085;-67
2023/06/05 01:16:30;;;;;;;4.65;2.70;;;;;;;25.76;50.79;99234.34;5092740;28;20504;-69
2023/06/05 01:19:02;;;;;;;5.38;3.00;;;;;;;25.76;50.78;99234.34;5092927;28;20102;-69
2023/06/05 01:21:32;;;;;;;4.03;2.50;;;;;;;25.77;50.61;99225.34;5092751;28;20019;-68
2023/06/05 01:23:58;;;;;;;3.60;2.60;;;;;;;25.72;50.83;99229.25;5092446;28;20047;-68
2023/06/05 01:26:52;;;;;;;4.35;2.63;;;;;;;25.72;50.89;99229.25;5092632;28;20034;-69
2023/06/05 01:29:23;;;;;;;4.32;2.70;;;;;;;25.69;51.03;99234.88;5092497;28;20514;-69
2023/06/05 01:31:54;;;;;;;4.05;2.33;;;;;;;25.68;51.16;99235.84;5092660;28;20016;-68
2023/06/05 01:34:20;;;;;;;3.83;2.83;;;;;;;25.72;50.95;99242.59;5092722;28;20020;-70
2023/06/05 01:36:47;;;;;;;3.72;2.65;;;;;;;25.69;51.15;99234.88;5092138;28;20404;-71
2023/06/05 01:39:14;;;;;;;4.30;2.63;;;;;;;25.64;50.78;99237.06;5092559;28;20032;-71
2023/06/05 01:41:40;;;;;;;4.30;2.40;;;;;;;25.62;51.14;99238.19;5092517;28;20031;-71
2023/06/05 01:44:08;;;;;;;3.65;2.55;;;;;;;25.57;50.84;99226.03;5092245;28;20021;-71
2023/06/05 01:46:33;;;;;;;4.15;2.38;;;;;;;25.54;50.76;99230.81;5092416;28;20545;-71
2023/06/05 01:49:01;;;;;;;4.07;2.60;;;;;;;25.52;51.06;99230.06;5092266;28;20024;-72
2023/06/05 01:51:26;;;;;;;3.58;2.38;;;;;;;25.51;50.78;99236.38;5091954;28;20024;-72
2023/06/05 01:53:52;;;;;;;4.53;2.50;;;;;;;25.50;51.10;99243.53;5092443;28;20028;-71
2023/06/05 01:56:23;;;;;;;3.90;2.47;;;;;;;25.48;50.88;99242.84;5091932;28;20052;-72
2023/06/05 01:58:49;;;;;;;3.97;2.47;;;;;;;25.48;51.08;99249.00;5092233;28;20111;-71
2023/06/05 02:01:16;;;;;;;2.90;2.10;;;;;;;25.48;50.72;99249.00;5092184;28;20099;-71
2023/06/05 02:03:47;;;;;;;4.00;2.47;;;;;;;25.47;50.98;99255.31;5092224;28;20036;-71
2023/06/05 02:06:15;;;;;;;3.17;2.15;;;;;;;25.46;51.02;99250.09;5091943;28;20078;-71
2023/06/05 02:08:40;;;;;;;3.38;2.13;;;;;;;25.46;50.97;99250.97;5092138;28;20024;-71
2023/06/05 02:11:09;;;;;;;4.32;2.75;;;;;;;25.43;50.86;99239.69;5090851;28;20020;-72
2023/06/05 02:13:39;;;;;;;4.57;2.53;;;;;;;25.41;51.04;99245.16;5091996;28;20028;-71
2023/06/05 02:16:05;;;;;;;4.68;2.65;;;;;;;25.41;51.27;99247.84;5092040;28;20384;-71
2023/06/05 02:18:30;;;;;;;5.05;2.40;;;;;;;25.42;50.95;99241.50;5090716;28;20031;-69
2023/06/05 02:20:56;;;;;;;4.43;2.60;;;;;;;25.41;51.31;99242.50;5091611;28;20108;-69
2023/06/05 02:23:22;;;;;;;3.67;2.38;;;;;;;25.40;51.28;99243.47;5092000;28;20024;-67
2023/06/05 02:25:48;;;;;;;5.13;2.50;;;;;;;25.40;51.19;99240.81;5091974;28;20480;-68
2023/06/05 02:28:15;;;;;;;3.25;2.40;;;;;;;25.34;51.34;99243.97;5091980;28;20024;-69
2023/06/05 02:30:45;;;;;;;4.65;2.70;;;;;;;25.36;51.33;99244.69;5091927;28;20031;-69
2023/06/05 02:33:11;;;;;;;3.60;2.40;;;;;;;25.35;51.56;99235.00;5091988;28;20028;-69
2023/06/05 02:35:39;;;;;;;4.15;2.40;;;;;;;25.32;51.46;99233.41;5090278;28;20020;-69
2023/06/05 02:38:05;;;;;;;5.35;2.78;;;;;;;25.30;51.63;99226.50;5091709;28;20028;-68
2023/06/05 02:40:31;;;;;;;5.10;2.80;;;;;;;25.28;51.27;99231.16;5091816;28;20024;-69
2023/06/05 02:42:56;;;;;;;5.28;2.53;;;;;;;25.25;51.59;99234.06;5091924;28;20023;-68
2023/06/05 02:45:21;;;;;;;3.72;2.50;;;;;;;25.22;51.62;99226.31;5091868;28;20459;-69
2023/06/05 02:47:48;;;;;;;3.97;2.50;;;;;;;25.23;51.76;99228.00;5091676;28;20027;-68
2023/06/05 02:50:14;;;;;;;4.32;2.70;;;;;;;25.18;51.51;99226.56;5091393;28;20444;-68
2023/06/05 02:52:39;;;;;;;3.70;2.38;;;;;;;25.14;51.91;99226.94;5092015;28;20065;-69
2023/06/05 02:55:05;;;;;;;4.55;3.05;;;;;;;25.14;51.88;99233.09;5091776;28;20044;-70
2023/06/05 02:57:33;;;;;;;4.97;2.88;;;;;;;25.13;51.60;99230.59;5091342;28;20048;-68
2023/06/05 02:59:58;;;;;;;3.83;2.42;;;;;;;25.13;51.61;99223.41;5091646;28;20028;-69
2023/06/05 03:02:26;;;;;;;3.75;2.55;;;;;;;25.14;51.71;99225.09;5091844;28;20027;-68
2023/06/05 03:04:53;;;;;;;3.30;2.40;;;;;;;25.12;51.92;99237.75;5090496;28;20092;-68
2023/06/05 03:07:19;;;;;;;4.90;2.50;;;;;;;25.10;51.67;99234.34;5074991;28;20075;-69
2023/06/05 03:09:45;;;;;;;3.83;2.25;;;;;;;25.08;52.01;99230.94;5074974;28;20177;-69
2023/06/05 03:12:10;;;;;;;3.95;2.72;;;;;;;25.11;51.87;99241.38;5074981;28;20044;-69
2023/06/05 03:14:35;;;;;;;5.95;2.83;;;;;;;25.07;52.10;99242.59;5075007;28;20028;-69
2023/06/05 03:17:01;;;;;;;4.18;2.47;;;;;;;25.08;52.09;99244.28;5074762;28;20017;-68
2023/06/05 03:19:26;;;;;;;4.22;2.65;;;;;;;25.04;52.05;99238.38;5074507;28;20553;-70
2023/06/05 03:21:53;;;;;;;4.38;2.60;;;;;;;25.07;51.74;99237.28;5074918;28;20537;-69
2023/06/05 03:24:19;;;;;;;4.85;2.63;;;;;;;25.07;51.74;99237.28;5074657;28;20407;-68
2023/06/05 03:26:45;;;;;;;3.45;2.45;;;;;;;25.09;52.14;99242.50;5074519;28;20491;-69
2023/06/05 03:29:12;;;;;;;3.80;2.70;;;;;;;25.09;51.89;99238.00;5074455;28;20016;-69
2023/06/05 03:31:37;;;;;;;3.80;2.72;;;;;;;25.10;51.81;99231.69;5074454;28;20493;-69
2023/06/05 03:34:03;;;;;;;3.35;2.30;;;;;;;25.08;52.02;99238.97;5074231;28;20066;-68
2023/06/05 03:36:30;;;;;;;3.65;2.55;;;;;;;25.05;51.84;99242.72;5074429;28;20048;-69
2023/06/05 03:38:56;;;;;;;3.88;2.70;;;;;;;25.00;51.95;99234.28;5087072;28;20016;-69
2023/06/05 03:41:22;;;;;;;4.30;2.67;;;;;;;25.00;52.02;99233.41;5094731;28;20028;-69
2023/06/05 03:43:49;;;;;;;4.53;2.83;;;;;;;24.96;52.04;99239.97;5094566;28;20083;-68
2023/06/05 03:46:18;;;;;;;5.22;2.40;;;;;;;24.97;51.99;99238.97;5094490;28;20015;-69
2023/06/05 03:48:45;;;;;;;3.50;2.33;;;;;;;24.96;52.31;99239.97;5093916;28;20580;-67
2023/06/05 03:51:11;;;;;;;4.47;2.95;;;;;;;24.96;52.05;99237.28;5094556;28;20028;-69
2023/06/05 03:53:39;;;;;;;5.03;2.60;;;;;;;24.99;52.20;99237.06;5094382;28;20494;-69
2023/06/05 03:56:05;;;;;;;3.72;2.45;;;;;;;24.94;52.39;99227.59;5094151;28;20418;-69
2023/06/05 03:58:31;;;;;;;3.92;2.30;;;;;;;24.91;52.42;99230.53;5093014;28;20028;-69
2023/06/05 04:00:57;;;;;;;4.68;2.95;;;;;;;24.89;52.25;99235.13;5094395;28;20038;-69
2023/06/05 04:03:22;;;;;;;3.70;2.50;;;;;;;24.90;52.35;99238.66;5093878;28;20032;-69
2023/06/05 04:05:48;;;;;;;4.45;2.45;;;;;;;24.90;52.31;99244.00;5094172;28;20172;-69
2023/06/05 04:08:13;;;;;;;4.63;3.17;;;;;;;24.89;52.42;99243.13;5093960;28;20078;-69
2023/06/05 04:10:40;;;;;;;3.53;2.58;;;;;;;24.90;52.32;99244.81;5094069;28;20033;-69
2023/06/05 04:13:05;;;;;;;3.88;2.55;;;;;;;24.94;52.18;99242.78;5094138;28;20051;-68
2023/06/05 04:15:31;;;;;;;3.72;2.20;;;;;;;24.94;52.13;99240.94;5093925;28;20357;-69
2023/06/05 04:17:57;;;;;;;3.80;2.60;;;;;;;24.94;52.23;99240.94;5093640;28;20031;-68
2023/06/05 04:20:22;;;;;;;3.85;2.65;;;;;;;24.94;52.25;99240.94;5093749;28;20024;-69
2023/06/05 04:22:48;;;;;;;5.00;2.75;;;;;;;24.92;52.11;99237.56;5094063;28;20024;-68
2023/06/05 04:25:14;;;;;;;3.45;2.45;;;;;;;24.94;52.31;99246.28;5093959;28;20028;-68
2023/06/05 04:27:41;;;;;;;3.58;2.38;;;;;;;24.95;52.41;99244.47;5093626;28;20507;-67
2023/06/05 04:30:08;;;;;;;3.55;2.60;;;;;;;24.93;52.19;99249.94;5093689;28;20020;-69
2023/06/05 04:32:37;;;;;;;4.25;2.63;;;;;;;24.96;52.28;99253.31;5093369;28;20024;-69
2023/06/05 04:35:11;;;;;;;4.35;2.58;;;;;;;24.96;52.28;99259.50;5092220;28;20024;-69
2023/06/05 04:37:38;;;;;;;4.25;2.83;;;;;;;24.96;52.43;99263.97;5093283;28;20024;-66
2023/06/05 04:40:05;;;;;;;3.80;2.65;;;;;;;24.97;52.31;99257.66;5092208;28;20024;-69
2023/06/05 04:42:34;;;;;;;3.70;2.72;;;;;;;24.93;52.25;99271.28;5093631;28;20365;-69
2023/06/05 04:45:03;;;;;;;3.80;2.80;;;;;;;24.91;52.38;99262.56;5093205;28;20016;-69
2023/06/05 04:47:29;;;;;;;3.42;2.30;;;;;;;24.96;52.30;99274.66;5097343;28;20484;-69
2023/06/05 04:49:58;;;;;;;3.78;2.67;;;;;;;24.95;52.43;99268.50;5093025;28;20491;-68
2023/06/05 04:52:24;;;;;;;4.03;2.65;;;;;;;24.94;52.39;99272.97;5093203;28;20048;-69
2023/06/05 04:54:49;;;;;;;4.47;2.55;;;;;;;25.00;52.38;99273.44;5093318;28;20100;-68
2023/06/05 04:57:16;;;;;;;4.28;2.53;;;;;;;24.98;52.08;99278.91;5092845;28;20123;-68
2023/06/05 04:59:45;;;;;;;4.22;2.58;;;;;;;24.98;52.13;99284.25;5092694;28;20098;-69
2023/06/05 05:02:11;;;;;;;4.28;2.75;;;;;;;24.98;52.21;99280.75;5092923;28;20035;-68
2023/06/05 05:04:37;;;;;;;4.40;2.80;;;;;;;24.99;52.32;99274.44;5088771;28;20026;-67
2023/06/05 05:07:02;;;;;;;4.57;2.78;;;;;;;24.99;52.42;99277.09;5092627;28;20024;-68
2023/06/05 05:09:28;;;;;;;4.30;2.55;;;;;;;24.98;52.47;99283.41;5092666;28;20020;-68
2023/06/05 05:11:53;;;;;;;3.15;2.20;;;;;;;24.99;52.08;99287.78;5089730;28;20023;-68
2023/06/05 05:14:19;;;;;;;3.78;2.47;;;;;;;24.99;52.02;99277.09;5072771;28;20035;-63
2023/06/05 05:16:44;;;;;;;3.85;2.72;;;;;;;24.99;51.95;99279.75;5072441;28;20028;-65
2023/06/05 05:19:10;;;;;;;4.35;2.35;;;;;;;24.98;52.11;99283.41;5072551;28;20020;-64
2023/06/05 05:21:36;;;;;;;3.80;2.42;;;;;;;24.99;52.36;99280.59;5071267;28;20434;-64
2023/06/05 05:24:02;;;;;;;4.80;2.70;;;;;;;25.01;52.05;99291.16;5072496;28;20021;-65
2023/06/05 05:26:27;;;;;;;4.10;2.30;;;;;;;25.02;52.27;99290.19;5071917;28;20028;-65
2023/06/05 05:28:52;;;;;;;3.58;2.58;;;;;;;25.00;52.15;99281.47;5072081;28;20515;-64
2023/06/05 05:31:18;;;;;;;3.70;2.55;;;;;;;25.02;52.25;99282.16;5072382;28;20481;-64
2023/06/05 05:33:44;;;;;;;3.22;2.30;;;;;;;25.00;52.18;99282.31;5072324;28;20074;-63
2023/06/05 05:36:09;;;;;;;5.28;2.90;;;;;;;25.00;52.31;99286.78;5072138;28;20417;-63
2023/06/05 05:38:35;;;;;;;4.20;2.50;;;;;;;24.99;51.97;99269.09;5072256;28;20017;-64
2023/06/05 05:41:00;;;;;;;3.60;2.30;;;;;;;25.02;51.88;99274.16;5072214;28;20025;-64
2023/06/05 05:43:26;;;;;;;3.83;2.83;;;;;;;25.00;52.29;99270.78;5071614;28;20474;-65
2023/06/05 05:45:51;;;;;;;6.70;2.60;;;;;;;25.01;52.26;99273.34;5091909;28;20085;-64
2023/06/05 05:48:17;;;;;;;3.45;2.50;;;;;;;24.98;52.10;99273.56;5092146;28;20073;-65
2023/06/05 05:50:42;;;;;;;4.80;2.58;;;;;;;24.99;52.21;99269.09;5092176;28;20379;-68
2023/06/05 05:53:08;;;;;;;4.63;2.60;;;;;;;25.00;52.04;99271.63;5088731;28;20023;-67
2023/06/05 05:55:33;;;;;;;3.63;2.40;;;;;;;24.99;52.07;99271.75;5090812;28;20020;-68
2023/06/05 05:57:58;;;;;;;3.70;2.30;;;;;;;24.99;52.10;99274.44;5091872;28;20115;-67
2023/06/05 06:00:24;;;;;;;3.63;2.70;;;;;;;24.97;52.29;99276.34;5092155;28;20103;-65
2023/06/05 06:02:51;;;;;;;3.90;2.70;;;;;;;24.96;52.18;99275.53;5091865;28;20031;-64
2023/06/05 06:05:18;;;;;;;4.15;2.40;;;;;;;24.98;52.11;99284.25;5092342;28;20024;-65
2023/06/05 06:07:43;;;;;;;3.92;2.40;;;;;;;24.98;51.98;99278.91;5092213;28;20036;-67
2023/06/05 06:10:11;;;;;;;4.20;2.72;;;;;;;25.01;52.00;99280.47;5092086;28;20076;-67
2023/06/05 06:12:37;;;;;;;4.60;2.65;;;;;;;25.02;52.14;99284.84;5091763;28;20029;-67
2023/06/05 06:15:03;;;;;;;4.00;2.40;;;;;;;25.02;51.88;99279.50;5090758;28;20030;-67
2023/06/05 06:17:29;;;;;;;5.25;2.83;;;;;;;25.01;51.82;99284.00;5091992;28;20020;-67
2023/06/05 06:19:55;;;;;;;4.25;2.63;;;;;;;25.02;51.99;99283.03;5092139;28;20032;-67
2023/06/05 06:22:20;;;;;;;3.38;2.40;;;;;;;25.02;51.80;99285.69;5085900;28;20027;-67
2023/06/05 06:24:46;;;;;;;4.68;2.22;;;;;;;25.04;51.98;99285.59;5087239;28;20077;-67
2023/06/05 06:27:12;;;;;;;5.05;2.20;;;;;;;25.03;51.80;99289.22;5091615;28;20117;-66
2023/06/05 06:29:59;;;;;;;4.03;2.47;;;;;;;25.03;52.11;99286.56;5091992;28;20055;-67
2023/06/05 06:32:25;;;;;;;;;;;;;;;25.02;52.13;99283.03;5092506;28;20035;-66
2023/06/05 06:34:51;;;;;;;;;;;;;;;25.02;52.06;99285.69;5092532;28;19919;-68
2023/06/05 06:37:16;;;;;;;3.40;2.53;;;;;;;25.04;51.92;99282.91;5091894;28;20339;-68
2023/06/05 06:39:43;;;;;;;4.63;2.47;;;;;;;25.05;51.86;99284.59;5086818;28;20028;-64
2023/06/05 06:42:12;;;;;;;4.47;2.22;;;;;;;25.06;51.86;99286.28;5095167;28;20114;-65
2023/06/05 06:44:38;;;;;;;4.38;2.55;;;;;;;25.05;51.72;99281.94;5094680;28;20466;-64
2023/06/05 06:47:04;;;;;;;3.55;2.42;;;;;;;25.08;52.27;99273.66;5087039;28;20028;-64
2023/06/05 06:49:30;;;;;;;4.13;2.55;;;;;;;25.08;52.07;99281.66;5085873;28;20036;-64
2023/06/05 06:51:56;;;;;;;3.97;2.40;;;;;;;25.09;52.00;99285.19;5089836;28;20028;-64
2023/06/05 06:54:22;;;;;;;3.55;2.40;;;;;;;25.09;51.92;99291.41;5078630;28;20024;-65
2023/06/05 06:56:49;;;;;;;4.00;2.47;;;;;;;25.10;51.85;99293.09;5090954;28;20048;-65
2023/06/05 06:59:14;;;;;;;4.43;2.50;;;;;;;25.14;51.95;99293.69;5082075;28;20020;-63
2023/06/05 07:01:45;;;;;;;3.80;2.50;;;;;;;25.15;51.86;99296.25;5084122;28;20024;-65
2023/06/05 07:04:16;;;;;;;3.78;2.42;;;;;;;25.18;51.63;99295.97;5090118;28;20103;-65
2023/06/05 07:06:42;;;;;;;5.55;2.67;;;;;;;25.19;51.69;99289.66;5087375;28;20042;-66
2023/06/05 07:09:08;;;;;;;4.38;2.63;;;;;;;25.24;51.70;99296.44;5076518;28;20404;-66
2023/06/05 07:11:33;;;;;;;4.70;2.80;;;;;;;25.28;51.35;99289.88;5091658;28;20020;-64
2023/06/05 07:13:58;;;;;;;4.10;2.55;;;;;;;25.33;51.50;99293.03;5094755;28;20020;-65
2023/06/05 07:16:24;;;;;;;3.70;2.40;;;;;;;25.36;51.43;99298.09;5081670;28;20081;-65
2023/06/05 07:18:51;;;;;;;4.15;2.50;;;;;;;25.39;51.45;99297.88;5091039;28;20099;-67
2023/06/05 07:21:16;;;;;;;4.82;2.83;;;;;;;25.41;51.25;99295.03;5077992;28;20008;-66
2023/06/05 07:23:41;;;;;;;3.92;2.78;;;;;;;25.36;51.78;99299.94;5087642;28;20071;-65
2023/06/05 07:26:07;;;;;;;5.95;3.00;;;;;;;25.34;51.78;99300.91;5080059;28;20476;-66
2023/06/05 07:28:32;;;;;;;3.80;2.42;;;;;;;25.38;51.70;99304.19;5076200;28;20028;-65
2023/06/05 07:31:03;;;;;;;5.68;2.72;;;;;;;25.40;51.53;99304.91;5089274;28;20031;-68
2023/06/05 07:33:28;;;;;;;5.22;2.55;;;;;;;25.42;51.68;99296.78;5084974;28;20025;-66
2023/06/05 07:35:54;;;;;;;4.65;2.95;;;;;;;25.43;51.14;99299.28;5090740;28;20034;-67
2023/06/05 07:38:20;;;;;;;4.47;2.53;;;;;;;25.43;51.64;99303.81;5094502;28;20089;-68
2023/06/05 07:40:45;;;;;;;4.70;2.78;;;;;;;25.40;51.54;99299.56;5094012;28;20103;-68
2023/06/05 07:43:14;;;;;;;4.50;2.65;;;;;;;25.43;51.52;99303.81;5093259;28;20066;-67
2023/06/05 07:45:40;;;;;;;4.70;2.88;;;;;;;25.44;51.44;99295.66;5094168;28;20024;-67
2023/06/05 07:48:05;;;;;;;4.00;2.60;;;;;;;25.45;51.66;99297.34;5094425;28;20403;-67
2023/06/05 07:50:31;;;;;;;4.38;2.88;;;;;;;25.46;51.40;99301.72;5093954;28;20028;-67
2023/06/05 07:52:56;;;;;;;4.35;2.90;;;;;;;25.48;51.30;99291.75;5094408;28;20028;-68
2023/06/05 07:55:21;;;;;;;4.88;2.92;;;;;;;25.51;51.66;99287.16;5094141;28;20028;-66
2023/06/05 07:57:47;;;;;;;5.80;3.17;;;;;;;25.53;51.50;99277.16;5094079;28;20040;-67
2023/06/05 08:00:13;;;;;;;4.95;2.83;;;;;;;25.54;51.19;99277.06;5094349;28;20047;-67
2023/06/05 08:02:38;;;;;;;4.80;2.70;;;;;;;25.54;51.50;99284.22;5094216;28;20165;-67
2023/06/05 08:05:05;;;;;;;4.88;3.15;;;;;;;25.56;51.61;99282.31;5094229;28;20028;-67
2023/06/05 08:07:30;;;;;;;4.80;2.75;;;;;;;25.57;51.47;99278.66;5094213;28;20024;-66
2023/06/05 08:09:55;;;;;;;5.18;2.85;;;;;;;25.60;51.31;99278.38;5093825;28;20431;-67
2023/06/05 08:12:21;;;;;;;4.00;2.85;;;;;;;25.61;51.44;99274.72;5094055;28;20145;-66
2023/06/05 08:14:46;;;;;;;4.05;2.78;;;;;;;25.62;51.53;99273.78;5092555;28;20016;-67
2023/06/05 08:17:11;;;;;;;5.20;3.10;;;;;;;25.62;51.39;99271.09;5093834;28;20024;-67
2023/06/05 08:19:37;;;;;;;4.82;3.00;;;;;;;25.63;51.55;99272.78;5092717;28;20555;-68
2023/06/05 08:22:04;;;;;;;7.15;2.97;;;;;;;25.64;51.26;99274.47;5093772;28;20024;-66
2023/06/05 08:24:30;;;;;;;5.60;3.10;;;;;;;25.65;51.37;99272.66;5092266;28;20024;-67
2023/06/05 08:26:56;;;;;;;6.82;3.38;;;;;;;25.66;51.47;99277.84;5093736;28;20027;-66
2023/06/05 08:29:21;;;;;;;4.75;3.05;;;;;;;25.66;51.55;99277.84;5093604;28;20020;-67
2023/06/05 08:31:47;;;;;;;6.25;3.15;;;;;;;25.67;51.29;99262.69;5093747;28;20030;-68
2023/06/05 08:34:12;;;;;;;4.53;3.08;;;;;;;25.67;51.43;99273.38;5093607;28;20022;-67
2023/06/05 08:36:37;;;;;;;5.72;3.67;;;;;;;25.69;51.34;99271.41;5089714;28;20070;-65
2023/06/05 08:39:04;;;;;;;6.03;3.30;;;;;;;25.69;51.10;99274.94;5072997;28;20111;-67
2023/06/05 08:41:33;;;;;;;4.90;3.10;;;;;;;25.71;51.14;99272.16;5073195;28;20413;-67
2023/06/05 08:43:58;;;;;;;5.00;3.67;;;;;;;25.70;51.42;99276.63;5073239;28;20031;-68
2023/06/05 08:46:27;;;;;;;6.88;3.45;;;;;;;25.71;51.22;99275.66;5083993;28;20380;-67
2023/06/05 08:48:53;;;;;;;5.88;3.40;;;;;;;25.71;51.21;99275.66;5093318;28;20032;-67
2023/06/05 08:51:19;;;;;;;6.75;3.65;;;;;;;25.72;51.27;99281.84;5093304;28;20468;-67
2023/06/05 08:54:17;;;;;;;6.35;3.50;;;;;;;25.73;51.23;99280.88;5093282;28;20020;-67
2023/06/05 08:56:43;;;;;;;5.13;4.03;;;;;;;25.74;51.57;99272.72;5030355;28;20509;-67
2023/06/05 08:59:14;;;;;;;5.25;3.53;;;;;;;25.76;51.58;99269.09;5014236;28;20068;-67
2023/06/05 09:01:40;;;;;;;6.80;3.80;;;;;;;25.74;51.69;99264.72;5030065;28;20045;-68
2023/06/05 09:04:05;;;;;;;5.63;3.60;;;;;;;25.74;51.35;99264.72;5030460;28;20025;-69
2023/06/05 09:06:32;;;;;;;5.80;3.63;;;;;;;25.76;51.48;99264.56;5022595;28;20067;-67
2023/06/05 09:09:00;;;;;;;5.78;4.10;;;;;;;25.76;51.68;99267.25;5027309;28;20040;-67
2023/06/05 09:11:30;;;;;;;5.45;4.07;;;;;;;25.79;51.67;99267.00;5030408;28;20029;-67
2023/06/05 09:14:00;;;;;;;6.25;4.45;;;;;;;25.79;51.84;99255.44;5030442;28;20040;-66
2023/06/05 09:16:34;;;;;;;6.68;3.88;;;;;;;25.80;51.72;99251.81;5028709;28;20083;-67
2023/06/05 09:19:01;;;;;;;5.72;4.40;;;;;;;25.81;51.51;99254.34;5023381;28;20069;-68
2023/06/05 09:21:31;;;;;;;5.50;4.28;;;;;;;25.83;51.43;99256.88;5029864;28;20086;-67
2023/06/05 09:24:11;;;;;;;6.68;4.85;;;;;;;25.84;51.49;99254.09;5030411;28;20025;-67
2023/06/05 09:26:55;;;;;;;7.22;4.70;;;;;;;25.84;51.81;99255.91;5030113;28;20041;-67
2023/06/05 09:29:22;;;;;;;6.88;5.10;;;;;;;25.84;51.86;99251.41;5030311;28;20030;-68
2023/06/05 09:31:48;;;;;;;6.07;4.53;;;;;;;25.87;51.49;99252.97;5048785;28;20085;-67
2023/06/05 09:34:35;;;;;;;7.38;4.63;;;;;;;25.89;51.33;99252.84;5092554;28;20032;-66
2023/06/05 09:37:03;;;;;;;6.30;4.68;;;;;;;25.89;51.96;99245.66;5084485;28;20024;-68
2023/06/05 09:39:31;;;;;;;6.45;4.45;;;;;;;25.89;51.47;99251.00;5072215;28;20064;-66
2023/06/05 09:41:58;;;;;;;7.05;4.60;;;;;;;25.90;51.41;99247.34;5072183;28;20028;-67
2023/06/05 09:44:25;;;;;;;7.97;5.20;;;;;;;25.91;51.78;99251.72;5072372;28;20017;-67
2023/06/05 09:47:00;;;;;;;6.72;4.45;;;;;;;25.94;51.74;99258.63;5086504;28;20024;-67
2023/06/05 09:49:29;;;;;;;8.17;4.93;;;;;;;25.94;51.77;99254.16;5092384;28;20059;-66
2023/06/05 09:51:59;;;;;;;5.80;4.28;;;;;;;25.94;51.70;99248.81;5092052;28;20036;-67
2023/06/05 09:54:36;;;;;;;8.32;4.97;;;;;;;25.95;51.66;99253.16;5092142;28;20476;-66
2023/06/05 09:57:04;;;;;;;6.72;5.05;;;;;;;25.95;51.54;99250.50;5091774;28;20052;-67
2023/06/05 09:59:35;;;;;;;6.05;4.65;;;;;;;25.97;51.31;99264.59;5092373;28;20039;-67
2023/06/05 10:02:06;;;;;;;8.38;5.47;;;;;;;25.98;51.81;99252.06;5092063;28;20078;-67
2023/06/05 10:05:03;;;;;;;6.75;4.88;;;;;;;25.99;51.38;99251.94;5091941;28;20032;-67
2023/06/05 10:07:31;;;;;;;6.22;5.22;;;;;;;25.98;51.77;99244.91;5070404;28;20051;-69
2023/06/05 10:09:57;;;;;;;6.60;4.97;;;;;;;26.00;51.77;99242.06;5071973;28;20107;-67
2023/06/05 10:12:26;;;;;;;7.38;4.93;;;;;;;26.01;51.50;99241.94;5071854;28;20479;-67
2023/06/05 10:14:54;;;;;;;7.07;4.97;;;;;;;26.03;51.58;99246.31;5075960;28;20028;-66
2023/06/05 10:17:21;;;;;;;6.05;4.70;;;;;;;26.04;51.36;99245.34;5083827;28;20036;-67
2023/06/05 10:19:47;;;;;;;6.53;4.90;;;;;;;26.05;51.22;99247.03;5095862;28;20024;-67
2023/06/05 10:22:13;;;;;;;7.82;4.93;;;;;;;26.06;51.60;99246.91;5096177;28;20077;-67
2023/06/05 10:24:44;;;;;;;6.72;4.80;;;;;;;26.07;51.64;99245.06;5096314;28;20024;-69
2023/06/05 10:27:18;;;;;;;6.32;4.38;;;;;;;26.07;51.92;99237.03;5089748;28;20392;-66
2023/06/05 10:30:14;;;;;;;7.57;4.97;;;;;;;26.10;51.45;99237.63;5075628;28;20408;-67
2023/06/05 10:33:09;;;;;;;6.25;4.82;;;;;;;26.11;51.31;99239.31;5075697;28;20028;-66
2023/06/05 10:35:40;;;;;;;5.75;3.85;;;;;;;26.12;51.79;99240.19;5075731;28;20051;-67
2023/06/05 10:38:09;;;;;;;6.95;4.90;;;;;;;26.13;51.21;99236.50;5089392;28;20035;-67
2023/06/05 10:40:35;;;;;;;7.47;5.45;;;;;;;26.13;51.29;99236.50;5095855;28;20035;-68
2023/06/05 10:43:38;;;;;;;6.30;4.75;;;;;;;26.13;51.58;99237.38;5095588;28;20027;-67
2023/06/05 10:46:28;;;;;;;7.28;4.70;;;;;;;26.14;51.37;99238.19;5095478;28;20533;-68
2023/06/05 10:49:17;;;;;;;6.85;4.57;;;;;;;26.13;51.53;99225.81;5075135;28;20024;-66
2023/06/05 10:51:45;;;;;;;6.97;4.82;;;;;;;26.14;51.57;99230.19;5075271;28;20031;-67
2023/06/05 10:54:38;;;;;;;6.38;5.03;;;;;;;26.14;51.34;99222.16;5075271;28;20473;-67
2023/06/05 10:57:06;;;;;;;6.75;5.10;;;;;;;26.15;51.73;99223.88;5073108;28;20123;-67
2023/06/05 10:59:39;;;;;;;6.30;4.80;;;;;;;26.16;51.70;99217.53;5095509;28;20031;-67
2023/06/05 11:02:25;;;;;;;7.30;4.68;;;;;;;26.17;51.62;99216.56;5095418;28;20119;-68
2023/06/05 11:04:53;;;;;;;6.97;4.85;;;;;;;26.19;51.18;99219.94;5094962;28;20054;-66
2023/06/05 11:07:26;;;;;;;5.60;4.15;;;;;;;26.20;51.57;99216.28;5095276;28;20107;-67
2023/06/05 11:10:22;;;;;;;6.90;4.97;;;;;;;26.21;51.23;99212.66;5095414;28;20028;-68
2023/06/05 11:12:51;;;;;;;6.70;5.05;;;;;;;26.25;51.07;99208.72;5095221;28;20028;-67
2023/06/05 11:15:33;;;;;;;6.28;4.53;;;;;;;26.25;51.06;99208.72;5088196;28;20134;-66
2023/06/05 11:18:35;;;;;;;6.00;4.15;;;;;;;26.27;51.06;99206.78;5086755;28;20028;-67
2023/06/05 11:21:01;;;;;;;5.07;3.85;;;;;;;26.29;51.18;99203.13;5094988;28;20092;-68
2023/06/05 11:23:28;;;;;;;6.90;4.90;;;;;;;26.31;51.10;99198.47;5094968;28;20487;-67
2023/06/05 11:25:58;;;;;;;5.28;4.15;;;;;;;26.33;51.03;99204.56;5094130;28;20061;-66
2023/06/05 11:28:43;;;;;;;5.28;3.97;;;;;;;26.35;51.18;99194.56;5094720;28;20403;-67
2023/06/05 11:31:09;;;;;;;6.68;4.72;;;;;;;26.35;51.09;99183.88;5094845;28;20012;-67
2023/06/05 11:33:35;;;;;;;6.35;4.45;;;;;;;26.38;51.32;99186.25;5094738;28;20103;-67
2023/06/05 11:36:06;;;;;;;6.38;4.63;;;;;;;26.38;51.31;99180.91;5094786;28;20085;-67
2023/06/05 11:38:33;;;;;;;6.28;4.60;;;;;;;26.38;51.09;99176.41;5081963;28;20149;-67